Kingsbury, Nevada
Current Conditions -  °F | °C
As of 12:53 PM on Tuesday 21 Oct 2014 (Local Time) from KTVL Reporting Station
Clear Clear  
Wind Chill: 55°   Ceiling: Unl
Heat Index: 55°   Visibility: 10mi
Dew Point: 19°   Wind: 8mph
Humidity: 24%   Direction: 180°S
Pressure: 30.1"   Gusts: NA
Location:  39.0164°N, 119.925°W
Report Text: KTVL 211953Z AUTO 18007KT 150V210 10SM CLR 13/M07 A3010 RMK AO2 SLP162 T01281072
Loading
Personal Weather Stations






























Interactive Weather Map
Tropical Storm Tracking
New forecast layout! Learn more

10-Day Weather Forecast

Advertisements
Track Severe Weather on mobile